PWSweather.com
Personal Weather Stations
Station Observations
KJ4AJP
Beautiful Downtown Gardner, Martin, TN 38237

Beautiful Downtown GardnerMartin, TN 38237

Lat: 36.358, Lon: -88.8994

Elevation: 384.3

Station Type: TP1080WC

http://weather.mambm.com/

Latest ConditionsUpdated 8:00:01 PM CDT Monday, Mar 25, 2019
Currently Today's Max Today's Min Today's Average
Temperature 49.6°F9.8°C 63.1°F17.3°C 49.6°F9.8°C 57.2°F14.0°C
Dew Point 48.3°F9.1°C 59.0°F15.0°C 48.3°F9.1°C 55.3°F12.9°C
Winds 3.8 mph N6.1 kmh N 13.6 mph -21.9 kmh - - 3.6 mph 5.8 kmh
Wind Gusts 15.2 mph24.5 kmh 21.3 mph34.3 kmh - -
Humidity 95% 99% 81% 94%
Pressure 30.19 in1022.4 mb 30.19 in1022.4 mb 29.91 in1012.9 mb -
Hour Temp Dew Point Humidity Winds Wind Gusts Pressure Precip Precip Rate Daily Precip Total
08:00 PM 49.6°F9.8°C 48.3°F9.1°C 95% 3.8 mph N6.1 kmh N 15.2 mph24.5 kmh 30.19 in1022.4 mb 0.00 in0.0 mm 0.00 in0.0 mm 0.00 in0.0 mm
07:45 PM 49.6°F9.8°C 48.5°F9.2°C 96% 6.0 mph N9.7 kmh N 14.5 mph23.3 kmh 30.18 in1022.0 mb 0.00 in0.0 mm 0.00 in0.0 mm 0.00 in0.0 mm
07:30 PM 49.8°F9.9°C 48.7°F9.3°C 96% 6.0 mph NNW9.7 kmh NNW 16.8 mph27.0 kmh 30.17 in1021.7 mb 0.00 in0.0 mm 0.00 in0.0 mm 0.00 in0.0 mm
07:15 PM 50.0°F10.0°C 48.9°F9.4°C 96% 9.8 mph N15.8 kmh N 21.3 mph34.3 kmh 30.17 in1021.7 mb 0.00 in0.0 mm 0.00 in0.0 mm 0.00 in0.0 mm
07:00 PM 50.0°F10.0°C 48.9°F9.4°C 96% 6.0 mph N9.7 kmh N 19.7 mph31.7 kmh 30.17 in1021.7 mb 0.00 in0.0 mm 0.00 in0.0 mm 0.00 in0.0 mm
06:45 PM 50.2°F10.1°C 49.1°F9.5°C 96% 9.2 mph N14.8 kmh N 17.4 mph28.0 kmh 30.16 in1021.3 mb 0.00 in0.0 mm 0.00 in0.0 mm 0.00 in0.0 mm
06:30 PM 50.2°F10.1°C 49.1°F9.5°C 96% 3.1 mph N5.0 kmh N 10.7 mph17.2 kmh 30.15 in1021.0 mb 0.00 in0.0 mm 0.00 in0.0 mm 0.00 in0.0 mm
06:15 PM 50.2°F10.1°C 49.4°F9.7°C 97% 3.8 mph N6.1 kmh N 11.4 mph18.3 kmh 30.15 in1021.0 mb 0.00 in0.0 mm 0.00 in0.0 mm 0.00 in0.0 mm
06:00 PM 50.4°F10.2°C 49.3°F9.6°C 96% 4.5 mph N7.2 kmh N 18.3 mph29.5 kmh 30.14 in1020.7 mb 0.00 in0.0 mm 0.00 in0.0 mm 0.00 in0.0 mm
05:45 PM 50.5°F10.3°C 49.4°F9.7°C 96% 3.8 mph N6.1 kmh N 20.6 mph33.2 kmh 30.14 in1020.7 mb 0.00 in0.0 mm 0.00 in0.0 mm 0.00 in0.0 mm
05:30 PM 50.9°F10.5°C 49.8°F9.9°C 96% 5.4 mph NNW8.7 kmh NNW 12.1 mph19.5 kmh 30.12 in1020.0 mb 0.00 in0.0 mm 0.00 in0.0 mm 0.00 in0.0 mm
05:15 PM 51.1°F10.6°C 50.0°F10.0°C 96% 6.0 mph N9.7 kmh N 19.0 mph30.6 kmh 30.12 in1020.0 mb 0.00 in0.0 mm 0.00 in0.0 mm 0.00 in0.0 mm
05:00 PM 51.3°F10.7°C 49.9°F9.9°C 95% 13.6 mph NNW21.9 kmh NNW 19.0 mph30.6 kmh 30.11 in1019.6 mb 0.00 in0.0 mm 0.00 in0.0 mm 0.00 in0.0 mm
04:45 PM 51.8°F11.0°C 50.4°F10.2°C 95% 6.0 mph N9.7 kmh N 19.0 mph30.6 kmh 30.11 in1019.6 mb 0.00 in0.0 mm 0.00 in0.0 mm 0.00 in0.0 mm
04:30 PM 52.3°F11.3°C 51.0°F10.6°C 95% 7.6 mph N12.2 kmh N 14.5 mph23.3 kmh 30.10 in1019.3 mb 0.00 in0.0 mm 0.00 in0.0 mm 0.00 in0.0 mm
04:15 PM 52.7°F11.5°C 51.6°F10.9°C 96% 3.1 mph NNW5.0 kmh NNW 12.1 mph19.5 kmh 30.10 in1019.3 mb 0.00 in0.0 mm 0.00 in0.0 mm 0.00 in0.0 mm
04:00 PM 53.2°F11.8°C 52.1°F11.2°C 96% 3.8 mph N6.1 kmh N 15.9 mph25.6 kmh 30.09 in1019.0 mb 0.00 in0.0 mm 0.00 in0.0 mm 0.00 in0.0 mm
03:45 PM 53.4°F11.9°C 52.3°F11.3°C 96% 6.9 mph N11.1 kmh N 17.4 mph28.0 kmh 30.09 in1019.0 mb 0.00 in0.0 mm 0.00 in0.0 mm 0.00 in0.0 mm
03:30 PM 54.1°F12.3°C 53.0°F11.7°C 96% 3.8 mph N6.1 kmh N 14.5 mph23.3 kmh 30.08 in1018.6 mb 0.00 in0.0 mm 0.00 in0.0 mm 0.00 in0.0 mm
03:15 PM 53.8°F12.1°C 53.0°F11.7°C 97% 3.1 mph NNW5.0 kmh NNW 14.5 mph23.3 kmh 30.08 in1018.6 mb 0.00 in0.0 mm 0.00 in0.0 mm 0.00 in0.0 mm
03:00 PM 54.3°F12.4°C 53.2°F11.8°C 96% 9.2 mph NNW14.8 kmh NNW 16.8 mph27.0 kmh 30.09 in1019.0 mb 0.00 in0.0 mm 0.00 in0.0 mm 0.00 in0.0 mm
02:45 PM 54.9°F12.7°C 53.5°F11.9°C 95% 3.8 mph N6.1 kmh N 14.5 mph23.3 kmh 30.08 in1018.6 mb 0.00 in0.0 mm 0.00 in0.0 mm 0.00 in0.0 mm
02:30 PM 55.0°F12.8°C 53.6°F12.0°C 95% 5.4 mph N8.7 kmh N 15.9 mph25.6 kmh 30.07 in1018.3 mb 0.00 in0.0 mm 0.00 in0.0 mm 0.00 in0.0 mm
02:15 PM 55.2°F12.9°C 53.5°F11.9°C 94% 9.8 mph N15.8 kmh N 17.4 mph28.0 kmh 30.07 in1018.3 mb 0.00 in0.0 mm 0.00 in0.0 mm 0.00 in0.0 mm
02:00 PM 55.6°F13.1°C 53.6°F12.0°C 93% 3.1 mph NNW5.0 kmh NNW 13.0 mph20.9 kmh 30.06 in1017.9 mb 0.00 in0.0 mm 0.00 in0.0 mm 0.00 in0.0 mm
01:45 PM 56.5°F13.6°C 54.5°F12.5°C 93% 3.1 mph N5.0 kmh N 15.9 mph25.6 kmh 30.05 in1017.6 mb 0.00 in0.0 mm 0.00 in0.0 mm 0.00 in0.0 mm
01:30 PM 56.7°F13.7°C 54.7°F12.6°C 93% 6.0 mph N9.7 kmh N 13.6 mph21.9 kmh 30.05 in1017.6 mb 0.00 in0.0 mm 0.00 in0.0 mm 0.00 in0.0 mm
01:15 PM 57.4°F14.1°C 55.1°F12.8°C 92% 4.5 mph N7.2 kmh N 9.8 mph15.8 kmh 30.05 in1017.6 mb 0.00 in0.0 mm 0.00 in0.0 mm 0.00 in0.0 mm
01:00 PM 57.7°F14.3°C 55.1°F12.8°C 91% 5.4 mph N8.7 kmh N 14.5 mph23.3 kmh 30.05 in1017.6 mb 0.00 in0.0 mm 0.00 in0.0 mm 0.00 in0.0 mm
12:45 PM 58.5°F14.7°C 55.9°F13.3°C 91% 3.1 mph N5.0 kmh N 13.0 mph20.9 kmh 30.04 in1017.3 mb 0.00 in0.0 mm 0.00 in0.0 mm 0.00 in0.0 mm
12:30 PM 59.2°F15.1°C 56.6°F13.7°C 91% 4.5 mph NNW7.2 kmh NNW 11.4 mph18.3 kmh 30.04 in1017.3 mb 0.00 in0.0 mm 0.00 in0.0 mm 0.00 in0.0 mm
12:15 PM 59.7°F15.4°C 56.8°F13.8°C 90% 3.1 mph N5.0 kmh N 9.2 mph14.8 kmh 30.03 in1016.9 mb 0.00 in0.0 mm 0.00 in0.0 mm 0.00 in0.0 mm
12:00 PM 60.1°F15.6°C 57.5°F14.2°C 91% 3.1 mph NNW5.0 kmh NNW 11.4 mph18.3 kmh 30.04 in1017.3 mb 0.00 in0.0 mm 0.00 in0.0 mm 0.00 in0.0 mm
11:45 AM 59.7°F15.4°C 57.1°F13.9°C 91% 4.5 mph N7.2 kmh N 9.8 mph15.8 kmh 30.03 in1016.9 mb 0.00 in0.0 mm 0.00 in0.0 mm 0.00 in0.0 mm
11:30 AM 59.7°F15.4°C 57.1°F13.9°C 91% 2.2 mph N3.5 kmh N 13.6 mph21.9 kmh 30.03 in1016.9 mb 0.00 in0.0 mm 0.00 in0.0 mm 0.00 in0.0 mm
11:15 AM 60.4°F15.8°C 58.1°F14.5°C 92% 3.1 mph N5.0 kmh N 9.8 mph15.8 kmh 30.02 in1016.6 mb 0.00 in0.0 mm 0.00 in0.0 mm 0.00 in0.0 mm
11:00 AM 60.8°F16.0°C 58.5°F14.7°C 92% 3.1 mph N5.0 kmh N 9.2 mph14.8 kmh 30.02 in1016.6 mb 0.00 in0.0 mm 0.00 in0.0 mm 0.00 in0.0 mm
10:45 AM 60.6°F15.9°C 58.3°F14.6°C 92% 1.6 mph NNW2.6 kmh NNW 9.8 mph15.8 kmh 30.01 in1016.3 mb 0.00 in0.0 mm 0.00 in0.0 mm 0.00 in0.0 mm
10:30 AM 60.6°F15.9°C 58.6°F14.8°C 93% 2.2 mph NNW3.5 kmh NNW 5.4 mph8.7 kmh 30.01 in1016.3 mb 0.00 in0.0 mm 0.00 in0.0 mm 0.00 in0.0 mm
10:15 AM 60.6°F15.9°C 58.3°F14.6°C 92% 1.6 mph NW2.6 kmh NW 4.5 mph7.2 kmh 30.00 in1015.9 mb 0.00 in0.0 mm 0.00 in0.0 mm 0.00 in0.0 mm
10:00 AM 60.8°F16.0°C 58.8°F14.9°C 93% 3.1 mph NW5.0 kmh NW 5.4 mph8.7 kmh 30.00 in1015.9 mb 0.00 in0.0 mm 0.00 in0.0 mm 0.00 in0.0 mm
09:45 AM 60.6°F15.9°C 58.6°F14.8°C 93% 1.6 mph N2.6 kmh N 9.2 mph14.8 kmh 29.99 in1015.6 mb 0.00 in0.0 mm 0.00 in0.0 mm 0.00 in0.0 mm
09:30 AM 60.4°F15.8°C 59.0°F15.0°C 95% 4.5 mph NNW7.2 kmh NNW 10.7 mph17.2 kmh 29.99 in1015.6 mb 0.00 in0.0 mm 0.00 in0.0 mm 0.00 in0.0 mm
09:15 AM 59.7°F15.4°C 58.9°F14.9°C 97% 2.2 mph NW3.5 kmh NW 5.4 mph8.7 kmh 29.99 in1015.6 mb 0.00 in0.0 mm 0.00 in0.0 mm 0.00 in0.0 mm
09:00 AM 59.4°F15.2°C 58.5°F14.7°C 97% 3.1 mph NNW5.0 kmh NNW 6.9 mph11.1 kmh 29.99 in1015.6 mb 0.00 in0.0 mm 0.00 in0.0 mm 0.00 in0.0 mm
08:45 AM 59.4°F15.2°C 58.8°F14.9°C 98% 1.6 mph NW2.6 kmh NW 9.2 mph14.8 kmh 29.98 in1015.2 mb 0.00 in0.0 mm 0.00 in0.0 mm 0.00 in0.0 mm
08:30 AM 58.6°F14.8°C 58.4°F14.7°C 99% 3.1 mph N5.0 kmh N 9.2 mph14.8 kmh 29.97 in1014.9 mb 0.00 in0.0 mm 0.00 in0.0 mm 0.00 in0.0 mm
08:15 AM 57.7°F14.3°C 57.5°F14.2°C 99% 0.7 mph NW1.1 kmh NW 3.1 mph5.0 kmh 29.97 in1014.9 mb 0.00 in0.0 mm 0.00 in0.0 mm 0.00 in0.0 mm
08:00 AM 57.7°F14.3°C 57.5°F14.2°C 99% 2.2 mph NNW3.5 kmh NNW 3.8 mph6.1 kmh 29.96 in1014.6 mb 0.00 in0.0 mm 0.00 in0.0 mm 0.00 in0.0 mm
07:45 AM 57.7°F14.3°C 57.5°F14.2°C 99% 1.6 mph NW2.6 kmh NW 3.8 mph6.1 kmh 29.97 in1014.9 mb 0.00 in0.0 mm 0.00 in0.0 mm 0.00 in0.0 mm
07:30 AM 57.7°F14.3°C 57.5°F14.2°C 99% 2.2 mph NW3.5 kmh NW 6.9 mph11.1 kmh 29.97 in1014.9 mb 0.00 in0.0 mm 0.00 in0.0 mm 0.00 in0.0 mm
07:15 AM 57.7°F14.3°C 57.5°F14.2°C 99% 1.6 mph NW2.6 kmh NW 4.5 mph7.2 kmh 29.96 in1014.6 mb 0.00 in0.0 mm 0.00 in0.0 mm 0.00 in0.0 mm
07:00 AM 57.7°F14.3°C 57.5°F14.2°C 99% Calm Calm 3.1 mph5.0 kmh 29.95 in1014.2 mb 0.00 in0.0 mm 0.00 in0.0 mm 0.00 in0.0 mm
06:45 AM 57.4°F14.1°C 57.1°F13.9°C 99% 0.7 mph WSW1.1 kmh WSW 3.8 mph6.1 kmh 29.96 in1014.6 mb 0.00 in0.0 mm 0.00 in0.0 mm 0.00 in0.0 mm
06:30 AM 57.4°F14.1°C 57.1°F13.9°C 99% 0.7 mph W1.1 kmh W 3.1 mph5.0 kmh 29.95 in1014.2 mb 0.00 in0.0 mm 0.00 in0.0 mm 0.00 in0.0 mm
06:15 AM 57.4°F14.1°C 57.1°F13.9°C 99% 0.7 mph WSW1.1 kmh WSW 6.9 mph11.1 kmh 29.94 in1013.9 mb 0.00 in0.0 mm 0.00 in0.0 mm 0.00 in0.0 mm
06:00 AM 56.5°F13.6°C 56.2°F13.4°C 99% 3.8 mph SW6.1 kmh SW 6.9 mph11.1 kmh 29.94 in1013.9 mb 0.00 in0.0 mm 0.00 in0.0 mm 0.00 in0.0 mm
05:45 AM 56.3°F13.5°C 55.8°F13.2°C 98% 0.7 mph S1.1 kmh S 2.2 mph3.5 kmh 29.94 in1013.9 mb 0.00 in0.0 mm 0.00 in0.0 mm 0.00 in0.0 mm
05:30 AM 56.7°F13.7°C 55.8°F13.2°C 97% 0.7 mph S1.1 kmh S 3.8 mph6.1 kmh 29.93 in1013.5 mb 0.00 in0.0 mm 0.00 in0.0 mm 0.00 in0.0 mm
05:15 AM 56.8°F13.8°C 55.7°F13.2°C 96% 1.6 mph WSW2.6 kmh WSW 3.1 mph5.0 kmh 29.93 in1013.5 mb 0.00 in0.0 mm 0.00 in0.0 mm 0.00 in0.0 mm
05:00 AM 57.6°F14.2°C 56.1°F13.4°C 95% 0.7 mph W1.1 kmh W 3.8 mph6.1 kmh 29.91 in1012.9 mb 0.00 in0.0 mm 0.00 in0.0 mm 0.00 in0.0 mm
04:45 AM 58.3°F14.6°C 56.6°F13.7°C 94% 1.6 mph WSW2.6 kmh WSW 7.6 mph12.2 kmh 29.91 in1012.9 mb 0.00 in0.0 mm 0.00 in0.0 mm 0.00 in0.0 mm
04:30 AM 58.8°F14.9°C 57.1°F13.9°C 94% 3.1 mph W5.0 kmh W 8.3 mph13.4 kmh 29.91 in1012.9 mb 0.00 in0.0 mm 0.00 in0.0 mm 0.00 in0.0 mm
04:15 AM 59.2°F15.1°C 57.2°F14.0°C 93% 3.1 mph WSW5.0 kmh WSW 6.0 mph9.7 kmh 29.91 in1012.9 mb 0.00 in0.0 mm 0.00 in0.0 mm 0.00 in0.0 mm
04:00 AM 59.7°F15.4°C 57.4°F14.1°C 92% 2.2 mph WSW3.5 kmh WSW 6.9 mph11.1 kmh 29.91 in1012.9 mb 0.00 in0.0 mm 0.00 in0.0 mm 0.00 in0.0 mm
03:45 AM 60.3°F15.7°C 57.6°F14.2°C 91% 0.7 mph WSW1.1 kmh WSW 6.0 mph9.7 kmh 29.91 in1012.9 mb 0.00 in0.0 mm 0.00 in0.0 mm 0.00 in0.0 mm
03:30 AM 61.0°F16.1°C 58.0°F14.4°C 90% Calm Calm 5.4 mph8.7 kmh 29.92 in1013.2 mb 0.00 in0.0 mm 0.00 in0.0 mm 0.00 in0.0 mm
03:15 AM 61.5°F16.4°C 58.6°F14.8°C 90% 2.2 mph WSW3.5 kmh WSW 10.7 mph17.2 kmh 29.92 in1013.2 mb 0.00 in0.0 mm 0.00 in0.0 mm 0.00 in0.0 mm
03:00 AM 61.2°F16.2°C 58.5°F14.7°C 91% 5.4 mph WSW8.7 kmh WSW 10.7 mph17.2 kmh 29.92 in1013.2 mb 0.00 in0.0 mm 0.00 in0.0 mm 0.00 in0.0 mm
02:45 AM 60.6°F15.9°C 58.0°F14.4°C 91% 5.4 mph WSW8.7 kmh WSW 12.1 mph19.5 kmh 29.93 in1013.5 mb 0.00 in0.0 mm 0.00 in0.0 mm 0.00 in0.0 mm
02:30 AM 61.2°F16.2°C 58.2°F14.6°C 90% 0.7 mph WNW1.1 kmh WNW 6.9 mph11.1 kmh 29.93 in1013.5 mb 0.00 in0.0 mm 0.00 in0.0 mm 0.00 in0.0 mm
02:15 AM 61.3°F16.3°C 58.4°F14.7°C 90% 2.2 mph WSW3.5 kmh WSW 9.2 mph14.8 kmh 29.92 in1013.2 mb 0.00 in0.0 mm 0.00 in0.0 mm 0.00 in0.0 mm
02:00 AM 61.3°F16.3°C 57.8°F14.3°C 88% 3.1 mph SW5.0 kmh SW 6.9 mph11.1 kmh 29.93 in1013.5 mb 0.00 in0.0 mm 0.00 in0.0 mm 0.00 in0.0 mm
01:45 AM 61.7°F16.5°C 57.8°F14.3°C 87% 3.1 mph SW5.0 kmh SW 6.0 mph9.7 kmh 29.93 in1013.5 mb 0.00 in0.0 mm 0.00 in0.0 mm 0.00 in0.0 mm
01:30 AM 62.1°F16.7°C 57.8°F14.3°C 86% 1.6 mph S2.6 kmh S 6.9 mph11.1 kmh 29.93 in1013.5 mb 0.00 in0.0 mm 0.00 in0.0 mm 0.00 in0.0 mm
01:15 AM 62.6°F17.0°C 58.4°F14.7°C 86% 2.2 mph SSW3.5 kmh SSW 13.6 mph21.9 kmh 29.93 in1013.5 mb 0.00 in0.0 mm 0.00 in0.0 mm 0.00 in0.0 mm
01:00 AM 63.1°F17.3°C 58.6°F14.8°C 85% 3.1 mph SW5.0 kmh SW 11.4 mph18.3 kmh 29.94 in1013.9 mb 0.00 in0.0 mm 0.00 in0.0 mm 0.00 in0.0 mm
12:45 AM 62.6°F17.0°C 57.4°F14.1°C 83% 5.4 mph SSW8.7 kmh SSW 11.4 mph18.3 kmh 29.95 in1014.2 mb 0.00 in0.0 mm 0.00 in0.0 mm 0.00 in0.0 mm
12:30 AM 61.9°F16.6°C 56.3°F13.5°C 82% 3.8 mph SSW6.1 kmh SSW 10.7 mph17.2 kmh 29.95 in1014.2 mb 0.00 in0.0 mm 0.00 in0.0 mm 0.00 in0.0 mm
12:15 AM 61.9°F16.6°C 56.3°F13.5°C 82% 5.4 mph S8.7 kmh S 11.4 mph18.3 kmh 29.94 in1013.9 mb 0.00 in0.0 mm 0.00 in0.0 mm 0.00 in0.0 mm
12:00 AM 62.2°F16.8°C 56.4°F13.6°C 81% 3.1 mph SSW5.0 kmh SSW 9.2 mph14.8 kmh 29.95 in1014.2 mb 0.00 in0.0 mm 0.00 in0.0 mm 0.00 in0.0 mm